Arion, Iowa
Current Conditions -  °F | °C
As of 11:55 AM on Monday 24 Nov 2014 (Local Time) from KDNS Reporting Station
Overcast Overcast  
Wind Chill: 11°   Ceiling: 1800
Heat Index: 25°   Visibility: 10mi
Dew Point: 16°   Wind: 20mph
Humidity: 69%   Direction: 310°NW
Pressure: 29.66"   Gusts: 36mph
Location:  41.95°N, 95.46°W
Report Text: KDNS 241755Z AUTO 31017G31KT 10SM OVC018 M04/M09 A2966 RMK AO2
Loading
Personal Weather Stations






























Interactive Weather Map New forecast layout! Learn more

10-Day Weather Forecast

Advertisements
Track Severe Weather on mobile